sensor_id;sensor_type;location;lat;lon;timestamp;P1;durP1;ratioP1;P2;durP2;ratioP2
67585;SDS011;55785;47.946;20.540;2022-11-15T00:00:17;5.07;;;2.40;;
67585;SDS011;55785;47.946;20.540;2022-11-15T00:02:43;3.03;;;2.00;;
67585;SDS011;55785;47.946;20.540;2022-11-15T00:05:09;4.37;;;2.17;;
67585;SDS011;55785;47.946;20.540;2022-11-15T00:07:34;4.00;;;2.30;;
67585;SDS011;55785;47.946;20.540;2022-11-15T00:09:59;4.30;;;2.43;;
67585;SDS011;55785;47.946;20.540;2022-11-15T00:12:26;4.80;;;2.40;;
67585;SDS011;55785;47.946;20.540;2022-11-15T00:14:52;5.37;;;2.80;;
67585;SDS011;55785;47.946;20.540;2022-11-15T00:17:17;4.00;;;2.50;;
67585;SDS011;55785;47.946;20.540;2022-11-15T00:19:43;4.27;;;2.43;;
67585;SDS011;55785;47.946;20.540;2022-11-15T00:22:08;4.47;;;2.40;;
67585;SDS011;55785;47.946;20.540;2022-11-15T00:24:33;3.23;;;2.00;;
67585;SDS011;55785;47.946;20.540;2022-11-15T00:26:58;3.57;;;1.80;;
67585;SDS011;55785;47.946;20.540;2022-11-15T00:29:24;2.77;;;1.63;;
67585;SDS011;55785;47.946;20.540;2022-11-15T00:31:49;3.57;;;1.57;;
67585;SDS011;55785;47.946;20.540;2022-11-15T00:34:14;10.27;;;5.33;;
67585;SDS011;55785;47.946;20.540;2022-11-15T00:36:40;4.17;;;2.23;;
67585;SDS011;55785;47.946;20.540;2022-11-15T00:39:05;5.37;;;2.30;;
67585;SDS011;55785;47.946;20.540;2022-11-15T00:41:30;3.03;;;2.10;;
67585;SDS011;55785;47.946;20.540;2022-11-15T00:43:56;4.43;;;2.20;;
67585;SDS011;55785;47.946;20.540;2022-11-15T00:46:21;4.93;;;2.27;;
67585;SDS011;55785;47.946;20.540;2022-11-15T00:48:46;4.57;;;2.30;;
67585;SDS011;55785;47.946;20.540;2022-11-15T00:51:12;4.60;;;2.37;;
67585;SDS011;55785;47.946;20.540;2022-11-15T00:53:37;4.43;;;2.30;;
67585;SDS011;55785;47.946;20.540;2022-11-15T00:56:03;3.20;;;2.03;;
67585;SDS011;55785;47.946;20.540;2022-11-15T00:58:28;4.77;;;2.30;;
67585;SDS011;55785;47.946;20.540;2022-11-15T01:00:53;4.17;;;2.27;;
67585;SDS011;55785;47.946;20.540;2022-11-15T01:03:19;4.30;;;2.20;;
67585;SDS011;55785;47.946;20.540;2022-11-15T01:05:44;3.77;;;2.10;;
67585;SDS011;55785;47.946;20.540;2022-11-15T01:08:11;3.40;;;2.10;;
67585;SDS011;55785;47.946;20.540;2022-11-15T01:10:40;3.30;;;2.27;;
67585;SDS011;55785;47.946;20.540;2022-11-15T01:13:06;3.57;;;2.10;;
67585;SDS011;55785;47.946;20.540;2022-11-15T01:15:31;4.47;;;2.40;;
67585;SDS011;55785;47.946;20.540;2022-11-15T01:17:56;4.67;;;2.30;;
67585;SDS011;55785;47.946;20.540;2022-11-15T01:20:22;4.20;;;2.53;;
67585;SDS011;55785;47.946;20.540;2022-11-15T01:22:47;4.17;;;2.40;;
67585;SDS011;55785;47.946;20.540;2022-11-15T01:25:12;7.70;;;4.70;;
67585;SDS011;55785;47.946;20.540;2022-11-15T01:27:38;8.53;;;3.80;;
67585;SDS011;55785;47.946;20.540;2022-11-15T01:30:04;6.13;;;2.77;;
67585;SDS011;55785;47.946;20.540;2022-11-15T01:32:30;4.57;;;2.23;;
67585;SDS011;55785;47.946;20.540;2022-11-15T01:34:56;4.03;;;2.50;;
67585;SDS011;55785;47.946;20.540;2022-11-15T01:37:21;6.07;;;2.70;;
67585;SDS011;55785;47.946;20.540;2022-11-15T01:39:46;5.43;;;2.53;;
67585;SDS011;55785;47.946;20.540;2022-11-15T01:42:12;4.97;;;2.10;;
67585;SDS011;55785;47.946;20.540;2022-11-15T01:44:42;4.60;;;2.23;;
67585;SDS011;55785;47.946;20.540;2022-11-15T01:49:59;4.60;;;2.30;;
67585;SDS011;55785;47.946;20.540;2022-11-15T01:52:28;3.10;;;2.17;;
67585;SDS011;55785;47.946;20.540;2022-11-15T01:55:02;4.47;;;2.33;;
67585;SDS011;55785;47.946;20.540;2022-11-15T01:57:58;5.80;;;2.40;;
67585;SDS011;55785;47.946;20.540;2022-11-15T02:00:26;3.87;;;2.40;;
67585;SDS011;55785;47.946;20.540;2022-11-15T02:02:52;3.83;;;2.13;;
67585;SDS011;55785;47.946;20.540;2022-11-15T02:05:17;4.87;;;2.50;;
67585;SDS011;55785;47.946;20.540;2022-11-15T02:07:43;3.60;;;2.10;;
67585;SDS011;55785;47.946;20.540;2022-11-15T02:10:11;3.20;;;1.90;;
67585;SDS011;55785;47.946;20.540;2022-11-15T02:12:47;4.03;;;2.17;;
67585;SDS011;55785;47.946;20.540;2022-11-15T02:15:13;5.87;;;3.10;;
67585;SDS011;55785;47.946;20.540;2022-11-15T02:28:53;4.60;;;2.50;;
67585;SDS011;55785;47.946;20.540;2022-11-15T02:31:29;5.83;;;3.20;;
67585;SDS011;55785;47.946;20.540;2022-11-15T02:40:21;5.60;;;2.83;;
67585;SDS011;55785;47.946;20.540;2022-11-15T02:42:54;5.47;;;2.70;;
67585;SDS011;55785;47.946;20.540;2022-11-15T02:45:34;4.80;;;2.70;;
67585;SDS011;55785;47.946;20.540;2022-11-15T02:48:13;4.70;;;2.60;;
67585;SDS011;55785;47.946;20.540;2022-11-15T02:50:40;4.77;;;2.50;;
67585;SDS011;55785;47.946;20.540;2022-11-15T02:53:07;6.33;;;2.70;;
67585;SDS011;55785;47.946;20.540;2022-11-15T02:55:34;5.10;;;2.90;;
67585;SDS011;55785;47.946;20.540;2022-11-15T02:58:06;4.00;;;2.60;;
67585;SDS011;55785;47.946;20.540;2022-11-15T03:00:35;4.60;;;2.43;;
67585;SDS011;55785;47.946;20.540;2022-11-15T03:03:15;4.23;;;2.30;;
67585;SDS011;55785;47.946;20.540;2022-11-15T03:08:32;3.83;;;2.30;;
67585;SDS011;55785;47.946;20.540;2022-11-15T03:11:08;3.70;;;2.00;;
67585;SDS011;55785;47.946;20.540;2022-11-15T03:13:43;4.40;;;1.90;;
67585;SDS011;55785;47.946;20.540;2022-11-15T03:18:55;2.97;;;1.70;;
67585;SDS011;55785;47.946;20.540;2022-11-15T03:21:24;4.63;;;1.90;;
67585;SDS011;55785;47.946;20.540;2022-11-15T03:23:53;3.03;;;1.90;;
67585;SDS011;55785;47.946;20.540;2022-11-15T03:26:20;4.53;;;2.00;;
67585;SDS011;55785;47.946;20.540;2022-11-15T03:28:55;3.33;;;1.93;;
67585;SDS011;55785;47.946;20.540;2022-11-15T03:31:26;4.27;;;2.40;;
67585;SDS011;55785;47.946;20.540;2022-11-15T03:33:56;5.47;;;2.53;;
67585;SDS011;55785;47.946;20.540;2022-11-15T03:36:24;6.03;;;2.73;;
67585;SDS011;55785;47.946;20.540;2022-11-15T03:38:55;4.67;;;2.20;;
67585;SDS011;55785;47.946;20.540;2022-11-15T03:41:28;4.47;;;2.43;;
67585;SDS011;55785;47.946;20.540;2022-11-15T03:47:09;4.77;;;2.50;;
67585;SDS011;55785;47.946;20.540;2022-11-15T03:49:46;3.77;;;2.30;;
67585;SDS011;55785;47.946;20.540;2022-11-15T03:52:17;4.40;;;2.20;;
67585;SDS011;55785;47.946;20.540;2022-11-15T03:54:54;4.23;;;2.20;;
67585;SDS011;55785;47.946;20.540;2022-11-15T03:57:20;6.53;;;2.40;;
67585;SDS011;55785;47.946;20.540;2022-11-15T03:59:46;4.23;;;2.30;;
67585;SDS011;55785;47.946;20.540;2022-11-15T04:02:13;4.80;;;2.30;;
67585;SDS011;55785;47.946;20.540;2022-11-15T04:04:38;3.87;;;1.97;;
67585;SDS011;55785;47.946;20.540;2022-11-15T04:07:04;5.63;;;2.50;;
67585;SDS011;55785;47.946;20.540;2022-11-15T04:09:30;4.87;;;2.30;;
67585;SDS011;55785;47.946;20.540;2022-11-15T04:11:55;5.50;;;2.60;;
67585;SDS011;55785;47.946;20.540;2022-11-15T04:14:20;4.53;;;2.50;;
67585;SDS011;55785;47.946;20.540;2022-11-15T04:16:46;6.73;;;2.60;;
67585;SDS011;55785;47.946;20.540;2022-11-15T04:19:11;4.70;;;2.57;;
67585;SDS011;55785;47.946;20.540;2022-11-15T04:21:36;5.10;;;2.50;;
67585;SDS011;55785;47.946;20.540;2022-11-15T04:24:02;6.20;;;2.90;;
67585;SDS011;55785;47.946;20.540;2022-11-15T04:26:27;3.13;;;2.10;;
67585;SDS011;55785;47.946;20.540;2022-11-15T04:28:52;4.17;;;2.60;;
67585;SDS011;55785;47.946;20.540;2022-11-15T04:31:18;6.73;;;2.80;;
67585;SDS011;55785;47.946;20.540;2022-11-15T04:33:43;4.03;;;2.53;;
67585;SDS011;55785;47.946;20.540;2022-11-15T04:36:08;4.20;;;2.53;;
67585;SDS011;55785;47.946;20.540;2022-11-15T04:38:34;5.03;;;2.43;;
67585;SDS011;55785;47.946;20.540;2022-11-15T04:41:01;4.10;;;2.43;;
67585;SDS011;55785;47.946;20.540;2022-11-15T04:43:27;3.87;;;2.63;;
67585;SDS011;55785;47.946;20.540;2022-11-15T04:45:52;4.77;;;2.30;;
67585;SDS011;55785;47.946;20.540;2022-11-15T04:48:18;5.63;;;2.50;;
67585;SDS011;55785;47.946;20.540;2022-11-15T04:50:43;4.63;;;2.50;;
67585;SDS011;55785;47.946;20.540;2022-11-15T04:53:08;3.97;;;2.60;;
67585;SDS011;55785;47.946;20.540;2022-11-15T04:55:34;5.73;;;2.50;;
67585;SDS011;55785;47.946;20.540;2022-11-15T04:58:00;4.40;;;2.30;;
67585;SDS011;55785;47.946;20.540;2022-11-15T05:00:26;4.40;;;2.50;;
67585;SDS011;55785;47.946;20.540;2022-11-15T05:02:53;3.23;;;2.20;;
67585;SDS011;55785;47.946;20.540;2022-11-15T05:05:18;4.70;;;2.30;;
67585;SDS011;55785;47.946;20.540;2022-11-15T05:07:43;3.87;;;2.33;;
67585;SDS011;55785;47.946;20.540;2022-11-15T05:10:09;3.27;;;2.10;;
67585;SDS011;55785;47.946;20.540;2022-11-15T05:12:35;3.90;;;2.27;;
67585;SDS011;55785;47.946;20.540;2022-11-15T05:15:00;4.60;;;2.23;;
67585;SDS011;55785;47.946;20.540;2022-11-15T05:17:26;3.53;;;2.37;;
67585;SDS011;55785;47.946;20.540;2022-11-15T05:19:51;3.83;;;2.23;;
67585;SDS011;55785;47.946;20.540;2022-11-15T05:22:16;3.87;;;2.17;;
67585;SDS011;55785;47.946;20.540;2022-11-15T05:24:42;4.77;;;2.00;;
67585;SDS011;55785;47.946;20.540;2022-11-15T05:27:07;3.80;;;2.13;;
67585;SDS011;55785;47.946;20.540;2022-11-15T05:29:33;3.70;;;2.17;;
67585;SDS011;55785;47.946;20.540;2022-11-15T05:31:58;3.63;;;2.10;;
67585;SDS011;55785;47.946;20.540;2022-11-15T05:34:24;5.70;;;2.40;;
67585;SDS011;55785;47.946;20.540;2022-11-15T05:36:50;4.03;;;2.43;;
67585;SDS011;55785;47.946;20.540;2022-11-15T05:39:15;6.20;;;2.47;;
67585;SDS011;55785;47.946;20.540;2022-11-15T05:41:44;4.60;;;2.63;;
67585;SDS011;55785;47.946;20.540;2022-11-15T05:44:14;3.73;;;2.20;;
67585;SDS011;55785;47.946;20.540;2022-11-15T05:46:42;5.00;;;2.90;;
67585;SDS011;55785;47.946;20.540;2022-11-15T05:49:09;6.07;;;2.87;;
67585;SDS011;55785;47.946;20.540;2022-11-15T05:51:37;4.20;;;2.70;;
67585;SDS011;55785;47.946;20.540;2022-11-15T05:54:03;5.70;;;2.93;;
67585;SDS011;55785;47.946;20.540;2022-11-15T05:56:29;8.00;;;2.80;;
67585;SDS011;55785;47.946;20.540;2022-11-15T05:58:55;7.27;;;3.23;;
67585;SDS011;55785;47.946;20.540;2022-11-15T06:01:22;7.87;;;3.33;;
67585;SDS011;55785;47.946;20.540;2022-11-15T06:03:49;6.13;;;2.93;;
67585;SDS011;55785;47.946;20.540;2022-11-15T06:06:14;5.17;;;2.70;;
67585;SDS011;55785;47.946;20.540;2022-11-15T06:08:40;4.70;;;2.80;;
67585;SDS011;55785;47.946;20.540;2022-11-15T06:11:05;3.90;;;2.50;;
67585;SDS011;55785;47.946;20.540;2022-11-15T06:13:32;5.97;;;2.90;;
67585;SDS011;55785;47.946;20.540;2022-11-15T06:15:58;7.10;;;3.00;;
67585;SDS011;55785;47.946;20.540;2022-11-15T06:18:24;5.47;;;2.70;;
67585;SDS011;55785;47.946;20.540;2022-11-15T06:20:49;6.10;;;3.10;;
67585;SDS011;55785;47.946;20.540;2022-11-15T06:23:14;5.93;;;3.17;;
67585;SDS011;55785;47.946;20.540;2022-11-15T06:25:40;5.07;;;3.10;;
67585;SDS011;55785;47.946;20.540;2022-11-15T06:28:05;5.43;;;3.20;;
67585;SDS011;55785;47.946;20.540;2022-11-15T06:30:30;5.70;;;2.80;;
67585;SDS011;55785;47.946;20.540;2022-11-15T06:33:02;6.60;;;2.70;;
67585;SDS011;55785;47.946;20.540;2022-11-15T06:35:29;5.63;;;2.60;;
67585;SDS011;55785;47.946;20.540;2022-11-15T06:37:55;5.43;;;2.80;;
67585;SDS011;55785;47.946;20.540;2022-11-15T06:40:21;4.27;;;2.83;;
67585;SDS011;55785;47.946;20.540;2022-11-15T06:42:46;6.37;;;2.83;;
67585;SDS011;55785;47.946;20.540;2022-11-15T06:45:12;21.90;;;9.77;;
67585;SDS011;55785;47.946;20.540;2022-11-15T06:47:46;25.23;;;12.23;;
67585;SDS011;55785;47.946;20.540;2022-11-15T06:50:12;22.23;;;10.67;;
67585;SDS011;55785;47.946;20.540;2022-11-15T06:52:37;7.20;;;3.80;;
67585;SDS011;55785;47.946;20.540;2022-11-15T06:55:03;4.73;;;3.00;;
67585;SDS011;55785;47.946;20.540;2022-11-15T06:57:28;6.33;;;3.40;;
67585;SDS011;55785;47.946;20.540;2022-11-15T06:59:53;27.87;;;12.40;;
67585;SDS011;55785;47.946;20.540;2022-11-15T07:02:19;16.03;;;8.93;;
67585;SDS011;55785;47.946;20.540;2022-11-15T07:04:44;8.90;;;4.23;;
67585;SDS011;55785;47.946;20.540;2022-11-15T07:07:09;5.30;;;3.57;;
67585;SDS011;55785;47.946;20.540;2022-11-15T07:09:35;8.00;;;4.07;;
67585;SDS011;55785;47.946;20.540;2022-11-15T07:12:00;7.33;;;4.30;;
67585;SDS011;55785;47.946;20.540;2022-11-15T07:14:25;10.40;;;4.27;;
67585;SDS011;55785;47.946;20.540;2022-11-15T07:16:51;8.67;;;3.80;;
67585;SDS011;55785;47.946;20.540;2022-11-15T07:19:16;20.10;;;11.57;;
67585;SDS011;55785;47.946;20.540;2022-11-15T07:21:41;14.60;;;7.90;;
67585;SDS011;55785;47.946;20.540;2022-11-15T07:24:06;9.60;;;5.87;;
67585;SDS011;55785;47.946;20.540;2022-11-15T07:26:32;10.47;;;5.57;;
67585;SDS011;55785;47.946;20.540;2022-11-15T07:28:57;13.07;;;7.13;;
67585;SDS011;55785;47.946;20.540;2022-11-15T07:31:23;13.03;;;6.87;;
67585;SDS011;55785;47.946;20.540;2022-11-15T07:33:48;13.00;;;7.23;;
67585;SDS011;55785;47.946;20.540;2022-11-15T07:36:13;13.50;;;6.80;;
67585;SDS011;55785;47.946;20.540;2022-11-15T07:38:38;14.77;;;8.40;;
67585;SDS011;55785;47.946;20.540;2022-11-15T07:41:04;14.93;;;7.90;;
67585;SDS011;55785;47.946;20.540;2022-11-15T07:43:30;13.73;;;6.70;;
67585;SDS011;55785;47.946;20.540;2022-11-15T07:45:56;11.93;;;6.30;;
67585;SDS011;55785;47.946;20.540;2022-11-15T07:48:22;14.97;;;6.87;;
67585;SDS011;55785;47.946;20.540;2022-11-15T07:50:47;17.80;;;7.43;;
67585;SDS011;55785;47.946;20.540;2022-11-15T07:53:13;15.83;;;6.90;;
67585;SDS011;55785;47.946;20.540;2022-11-15T07:55:39;15.17;;;6.53;;
67585;SDS011;55785;47.946;20.540;2022-11-15T07:58:07;30.20;;;15.53;;
67585;SDS011;55785;47.946;20.540;2022-11-15T08:00:34;20.47;;;10.30;;
67585;SDS011;55785;47.946;20.540;2022-11-15T08:03:07;18.10;;;8.83;;
67585;SDS011;55785;47.946;20.540;2022-11-15T08:05:34;15.53;;;7.63;;
67585;SDS011;55785;47.946;20.540;2022-11-15T08:08:00;15.37;;;8.27;;
67585;SDS011;55785;47.946;20.540;2022-11-15T08:10:26;17.70;;;8.40;;
67585;SDS011;55785;47.946;20.540;2022-11-15T08:15:24;19.00;;;9.80;;
67585;SDS011;55785;47.946;20.540;2022-11-15T08:17:53;17.63;;;9.53;;
67585;SDS011;55785;47.946;20.540;2022-11-15T08:20:19;15.57;;;9.03;;
67585;SDS011;55785;47.946;20.540;2022-11-15T08:22:44;17.77;;;9.00;;
67585;SDS011;55785;47.946;20.540;2022-11-15T08:25:09;15.60;;;8.13;;
67585;SDS011;55785;47.946;20.540;2022-11-15T08:27:35;15.30;;;7.73;;
67585;SDS011;55785;47.946;20.540;2022-11-15T08:30:00;13.32;;;7.70;;
67585;SDS011;55785;47.946;20.540;2022-11-15T08:32:25;13.68;;;7.65;;
67585;SDS011;55785;47.946;20.540;2022-11-15T08:34:51;20.52;;;9.52;;
67585;SDS011;55785;47.946;20.540;2022-11-15T08:37:16;19.47;;;10.03;;
67585;SDS011;55785;47.946;20.540;2022-11-15T08:39:42;19.53;;;10.63;;
67585;SDS011;55785;47.946;20.540;2022-11-15T08:42:07;21.33;;;11.50;;
67585;SDS011;55785;47.946;20.540;2022-11-15T08:44:32;18.85;;;10.38;;
67585;SDS011;55785;47.946;20.540;2022-11-15T08:46:58;18.63;;;10.07;;
67585;SDS011;55785;47.946;20.540;2022-11-15T08:49:23;19.83;;;10.93;;
67585;SDS011;55785;47.946;20.540;2022-11-15T08:51:48;18.02;;;9.52;;
67585;SDS011;55785;47.946;20.540;2022-11-15T08:54:14;17.65;;;10.02;;
67585;SDS011;55785;47.946;20.540;2022-11-15T08:56:39;16.58;;;9.60;;
67585;SDS011;55785;47.946;20.540;2022-11-15T08:59:04;15.88;;;9.05;;
67585;SDS011;55785;47.946;20.540;2022-11-15T09:01:30;19.08;;;9.50;;
67585;SDS011;55785;47.946;20.540;2022-11-15T09:03:55;17.65;;;10.50;;
67585;SDS011;55785;47.946;20.540;2022-11-15T09:06:20;19.13;;;11.38;;
67585;SDS011;55785;47.946;20.540;2022-11-15T09:08:46;19.73;;;10.88;;
67585;SDS011;55785;47.946;20.540;2022-11-15T09:11:11;19.30;;;10.65;;
67585;SDS011;55785;47.946;20.540;2022-11-15T09:13:36;21.25;;;11.10;;
67585;SDS011;55785;47.946;20.540;2022-11-15T09:16:02;19.70;;;11.10;;
67585;SDS011;55785;47.946;20.540;2022-11-15T09:18:27;18.00;;;9.82;;
67585;SDS011;55785;47.946;20.540;2022-11-15T09:20:56;21.25;;;11.13;;
67585;SDS011;55785;47.946;20.540;2022-11-15T09:23:21;16.83;;;10.02;;
67585;SDS011;55785;47.946;20.540;2022-11-15T09:25:46;19.45;;;10.63;;
67585;SDS011;55785;47.946;20.540;2022-11-15T09:28:11;18.83;;;10.85;;
67585;SDS011;55785;47.946;20.540;2022-11-15T09:30:37;19.58;;;10.38;;
67585;SDS011;55785;47.946;20.540;2022-11-15T09:33:09;18.23;;;10.15;;
67585;SDS011;55785;47.946;20.540;2022-11-15T09:35:34;18.70;;;11.13;;
67585;SDS011;55785;47.946;20.540;2022-11-15T09:38:00;19.52;;;11.00;;
67585;SDS011;55785;47.946;20.540;2022-11-15T09:40:25;23.77;;;14.03;;
67585;SDS011;55785;47.946;20.540;2022-11-15T09:43:01;22.87;;;11.20;;
67585;SDS011;55785;47.946;20.540;2022-11-15T09:50:56;31.63;;;16.73;;
67585;SDS011;55785;47.946;20.540;2022-11-15T09:56:16;30.13;;;14.80;;
67585;SDS011;55785;47.946;20.540;2022-11-15T10:01:41;28.55;;;14.90;;
67585;SDS011;55785;47.946;20.540;2022-11-15T10:04:13;26.77;;;13.77;;
67585;SDS011;55785;47.946;20.540;2022-11-15T10:06:41;28.13;;;13.88;;
67585;SDS011;55785;47.946;20.540;2022-11-15T10:09:15;26.17;;;14.03;;
67585;SDS011;55785;47.946;20.540;2022-11-15T10:11:44;25.27;;;13.40;;
67585;SDS011;55785;47.946;20.540;2022-11-15T10:14:17;26.23;;;14.35;;
67585;SDS011;55785;47.946;20.540;2022-11-15T10:19:44;23.97;;;13.20;;
67585;SDS011;55785;47.946;20.540;2022-11-15T10:27:47;23.83;;;12.77;;
67585;SDS011;55785;47.946;20.540;2022-11-15T10:30:18;24.50;;;13.50;;
67585;SDS011;55785;47.946;20.540;2022-11-15T10:32:44;24.05;;;13.13;;
67585;SDS011;55785;47.946;20.540;2022-11-15T10:37:51;23.33;;;12.10;;
67585;SDS011;55785;47.946;20.540;2022-11-15T10:40:21;22.50;;;12.90;;
67585;SDS011;55785;47.946;20.540;2022-11-15T10:42:48;26.85;;;13.55;;
67585;SDS011;55785;47.946;20.540;2022-11-15T10:45:29;27.10;;;12.23;;
67585;SDS011;55785;47.946;20.540;2022-11-15T10:50:36;21.67;;;12.57;;
67585;SDS011;55785;47.946;20.540;2022-11-15T10:53:01;21.92;;;12.80;;
67585;SDS011;55785;47.946;20.540;2022-11-15T10:55:28;22.00;;;12.82;;
67585;SDS011;55785;47.946;20.540;2022-11-15T10:58:06;22.92;;;13.95;;
67585;SDS011;55785;47.946;20.540;2022-11-15T11:01:17;24.27;;;13.88;;
67585;SDS011;55785;47.946;20.540;2022-11-15T11:04:03;25.55;;;14.43;;
67585;SDS011;55785;47.946;20.540;2022-11-15T11:06:46;27.48;;;13.07;;
67585;SDS011;55785;47.946;20.540;2022-11-15T11:09:21;21.88;;;13.15;;
67585;SDS011;55785;47.946;20.540;2022-11-15T11:11:52;25.73;;;12.73;;
67585;SDS011;55785;47.946;20.540;2022-11-15T11:14:22;22.60;;;13.38;;
67585;SDS011;55785;47.946;20.540;2022-11-15T11:21:52;19.75;;;11.88;;
67585;SDS011;55785;47.946;20.540;2022-11-15T11:24:44;20.08;;;12.57;;
67585;SDS011;55785;47.946;20.540;2022-11-15T11:27:53;19.85;;;11.55;;
67585;SDS011;55785;47.946;20.540;2022-11-15T11:33:27;21.08;;;12.05;;
67585;SDS011;55785;47.946;20.540;2022-11-15T11:47:00;17.67;;;12.02;;
67585;SDS011;55785;47.946;20.540;2022-11-15T11:49:42;23.10;;;12.55;;
67585;SDS011;55785;47.946;20.540;2022-11-15T11:55:04;24.58;;;13.98;;
67585;SDS011;55785;47.946;20.540;2022-11-15T12:00:26;25.75;;;14.82;;
67585;SDS011;55785;47.946;20.540;2022-11-15T12:05:39;28.92;;;16.58;;
67585;SDS011;55785;47.946;20.540;2022-11-15T12:08:23;28.67;;;16.50;;
67585;SDS011;55785;47.946;20.540;2022-11-15T12:13:48;30.25;;;16.83;;
67585;SDS011;55785;47.946;20.540;2022-11-15T12:16:26;30.23;;;18.15;;
67585;SDS011;55785;47.946;20.540;2022-11-15T12:18:53;31.67;;;17.73;;
67585;SDS011;55785;47.946;20.540;2022-11-15T12:21:24;31.23;;;16.55;;
67585;SDS011;55785;47.946;20.540;2022-11-15T12:24:16;27.83;;;15.60;;
67585;SDS011;55785;47.946;20.540;2022-11-15T12:26:47;26.27;;;15.20;;
67585;SDS011;55785;47.946;20.540;2022-11-15T12:29:25;26.77;;;14.97;;
67585;SDS011;55785;47.946;20.540;2022-11-15T12:31:55;27.70;;;15.32;;
67585;SDS011;55785;47.946;20.540;2022-11-15T12:36:48;25.80;;;15.02;;
67585;SDS011;55785;47.946;20.540;2022-11-15T12:39:15;28.95;;;16.40;;
67585;SDS011;55785;47.946;20.540;2022-11-15T12:41:42;30.55;;;16.08;;
67585;SDS011;55785;47.946;20.540;2022-11-15T12:47:03;30.13;;;16.42;;
67585;SDS011;55785;47.946;20.540;2022-11-15T12:49:46;29.67;;;16.63;;
67585;SDS011;55785;47.946;20.540;2022-11-15T12:52:12;28.65;;;15.73;;
67585;SDS011;55785;47.946;20.540;2022-11-15T13:02:35;26.08;;;14.48;;
67585;SDS011;55785;47.946;20.540;2022-11-15T13:17:51;28.20;;;14.85;;
67585;SDS011;55785;47.946;20.540;2022-11-15T13:20:22;27.80;;;15.00;;
67585;SDS011;55785;47.946;20.540;2022-11-15T13:23:02;27.20;;;15.00;;
67585;SDS011;55785;47.946;20.540;2022-11-15T13:31:13;28.40;;;15.25;;
67585;SDS011;55785;47.946;20.540;2022-11-15T13:33:44;28.55;;;15.38;;
67585;SDS011;55785;47.946;20.540;2022-11-15T13:38:40;27.98;;;15.90;;
67585;SDS011;55785;47.946;20.540;2022-11-15T13:41:19;26.63;;;15.27;;
67585;SDS011;55785;47.946;20.540;2022-11-15T13:43:48;30.80;;;16.92;;
67585;SDS011;55785;47.946;20.540;2022-11-15T13:46:27;39.80;;;20.70;;
67585;SDS011;55785;47.946;20.540;2022-11-15T13:48:55;52.75;;;26.00;;
67585;SDS011;55785;47.946;20.540;2022-11-15T13:51:44;41.45;;;22.33;;
67585;SDS011;55785;47.946;20.540;2022-11-15T13:54:19;69.50;;;34.08;;
67585;SDS011;55785;47.946;20.540;2022-11-15T13:56:50;60.72;;;31.27;;
67585;SDS011;55785;47.946;20.540;2022-11-15T13:59:24;60.88;;;31.77;;
67585;SDS011;55785;47.946;20.540;2022-11-15T14:01:51;51.80;;;27.92;;
67585;SDS011;55785;47.946;20.540;2022-11-15T14:04:19;69.07;;;34.22;;
67585;SDS011;55785;47.946;20.540;2022-11-15T14:06:47;66.68;;;35.45;;
67585;SDS011;55785;47.946;20.540;2022-11-15T14:11:54;56.35;;;30.52;;
67585;SDS011;55785;47.946;20.540;2022-11-15T14:14:21;56.78;;;30.55;;
67585;SDS011;55785;47.946;20.540;2022-11-15T14:16:58;49.55;;;27.08;;
67585;SDS011;55785;47.946;20.540;2022-11-15T14:25:19;51.00;;;27.90;;
67585;SDS011;55785;47.946;20.540;2022-11-15T14:30:32;49.63;;;25.73;;
67585;SDS011;55785;47.946;20.540;2022-11-15T14:32:57;45.13;;;25.27;;
67585;SDS011;55785;47.946;20.540;2022-11-15T14:35:23;41.38;;;22.58;;
67585;SDS011;55785;47.946;20.540;2022-11-15T14:37:48;41.13;;;21.85;;
67585;SDS011;55785;47.946;20.540;2022-11-15T14:40:15;52.55;;;27.27;;
67585;SDS011;55785;47.946;20.540;2022-11-15T14:42:46;53.45;;;27.20;;
67585;SDS011;55785;47.946;20.540;2022-11-15T14:45:16;50.90;;;27.60;;
67585;SDS011;55785;47.946;20.540;2022-11-15T14:47:43;44.45;;;24.08;;
67585;SDS011;55785;47.946;20.540;2022-11-15T14:50:16;37.13;;;20.58;;
67585;SDS011;55785;47.946;20.540;2022-11-15T14:52:43;34.80;;;19.20;;
67585;SDS011;55785;47.946;20.540;2022-11-15T14:55:14;34.27;;;19.77;;
67585;SDS011;55785;47.946;20.540;2022-11-15T14:57:50;37.90;;;20.75;;
67585;SDS011;55785;47.946;20.540;2022-11-15T15:00:16;42.25;;;22.15;;
67585;SDS011;55785;47.946;20.540;2022-11-15T15:02:42;41.33;;;22.07;;
67585;SDS011;55785;47.946;20.540;2022-11-15T15:08:10;40.83;;;21.23;;
67585;SDS011;55785;47.946;20.540;2022-11-15T15:10:40;39.63;;;22.20;;
67585;SDS011;55785;47.946;20.540;2022-11-15T15:13:20;42.00;;;22.57;;
67585;SDS011;55785;47.946;20.540;2022-11-15T15:15:48;41.63;;;22.50;;
67585;SDS011;55785;47.946;20.540;2022-11-15T15:18:14;60.83;;;31.17;;
67585;SDS011;55785;47.946;20.540;2022-11-15T15:20:39;51.60;;;26.30;;
67585;SDS011;55785;47.946;20.540;2022-11-15T15:23:24;49.97;;;26.88;;
67585;SDS011;55785;47.946;20.540;2022-11-15T15:25:50;38.60;;;21.17;;
67585;SDS011;55785;47.946;20.540;2022-11-15T15:28:15;42.23;;;22.30;;
67585;SDS011;55785;47.946;20.540;2022-11-15T15:30:41;51.97;;;27.90;;
67585;SDS011;55785;47.946;20.540;2022-11-15T15:33:06;45.97;;;24.33;;
67585;SDS011;55785;47.946;20.540;2022-11-15T15:35:32;55.03;;;27.13;;
67585;SDS011;55785;47.946;20.540;2022-11-15T15:37:59;46.55;;;23.30;;
67585;SDS011;55785;47.946;20.540;2022-11-15T15:40:25;46.80;;;23.37;;
67585;SDS011;55785;47.946;20.540;2022-11-15T15:42:52;42.92;;;22.63;;
67585;SDS011;55785;47.946;20.540;2022-11-15T15:45:17;36.92;;;20.40;;
67585;SDS011;55785;47.946;20.540;2022-11-15T15:47:43;38.63;;;19.95;;
67585;SDS011;55785;47.946;20.540;2022-11-15T15:52:51;36.45;;;21.15;;
67585;SDS011;55785;47.946;20.540;2022-11-15T15:55:17;37.30;;;20.83;;
67585;SDS011;55785;47.946;20.540;2022-11-15T15:57:43;35.15;;;19.35;;
67585;SDS011;55785;47.946;20.540;2022-11-15T16:00:09;33.80;;;19.63;;
67585;SDS011;55785;47.946;20.540;2022-11-15T16:02:35;36.07;;;19.97;;
67585;SDS011;55785;47.946;20.540;2022-11-15T16:05:00;43.47;;;23.00;;
67585;SDS011;55785;47.946;20.540;2022-11-15T16:07:25;77.45;;;30.27;;
67585;SDS011;55785;47.946;20.540;2022-11-15T16:09:51;67.55;;;30.88;;
67585;SDS011;55785;47.946;20.540;2022-11-15T16:12:16;54.65;;;28.33;;
67585;SDS011;55785;47.946;20.540;2022-11-15T16:14:42;57.28;;;29.23;;
67585;SDS011;55785;47.946;20.540;2022-11-15T16:17:17;56.57;;;30.20;;
67585;SDS011;55785;47.946;20.540;2022-11-15T16:19:45;62.77;;;30.17;;
67585;SDS011;55785;47.946;20.540;2022-11-15T16:22:10;55.23;;;27.27;;
67585;SDS011;55785;47.946;20.540;2022-11-15T16:24:36;58.97;;;28.57;;
67585;SDS011;55785;47.946;20.540;2022-11-15T16:27:01;59.13;;;28.87;;
67585;SDS011;55785;47.946;20.540;2022-11-15T16:29:27;57.57;;;28.53;;
67585;SDS011;55785;47.946;20.540;2022-11-15T16:31:52;60.03;;;27.63;;
67585;SDS011;55785;47.946;20.540;2022-11-15T16:34:17;57.37;;;26.97;;
67585;SDS011;55785;47.946;20.540;2022-11-15T16:36:43;58.47;;;28.93;;
67585;SDS011;55785;47.946;20.540;2022-11-15T16:39:11;74.30;;;35.70;;
67585;SDS011;55785;47.946;20.540;2022-11-15T16:41:37;71.77;;;32.60;;
67585;SDS011;55785;47.946;20.540;2022-11-15T16:44:02;69.83;;;33.10;;